Ganja Airport
UBBG : now visible

Airfield :











YOU CAN JOIN US ON...

 
LOGIN :

Register | Disclaimer

   EN    FR    IT 

 









Legend :    VFR   Marginal VFR   IFR   Intensive IFR   Very Intensive IFR
Visi :
Ceiling :
>= 8 km
>= 3000ft
5 to 8 km
1000 to 3000 ft
1500m to 5 km
500 to 1000 ft
800 to 1500m
200 to 500 ft
< 800m
< 200 ft
Symbols :   Thunderstorms  Fog  Heavy snow  Heavy precipitations  Wind > 20 kt






- Airport Elevation : 1083 ft
- IATA code : KVD


UBBG - Ganja

CURRENT METAR :
  • 261130Z 05006KT 350V090 9999 FEW100 10/M04 Q1023 R12/CLRD// NOSIG

EXPIRED METARs :
  • 261100Z 08008KT 040V110 9999 FEW100 09/M04 Q1022 R12/CLRD// NOSIG
  • 261030Z 12008KT 060V190 9999 FEW100 09/M03 Q1022 R12/CLRD// NOSIG
  • 261000Z 10008KT 060V140 9999 FEW100 09/M02 Q1023 R12/CLRD// NOSIG
  • 260930Z 07010KT 050V140 9999 FEW100 09/M04 Q1023 R12/CLRD// NOSIG
  • 260900Z 09008KT 030V160 9999 FEW100 09/M05 Q1023 R30/CLRD// NOSIG
  • 260830Z 09006KT 030V170 9999 FEW100 08/M05 Q1024 R30/CLRD// NOSIG

TAF TAF UBBG
Valid from the 26 at 12:00 until the 27 at 12:00 UTC


261100Z 2612/2712 VRB04KT 9999 FEW050 SCT100 TX11/2612Z TN03/2703Z
TEMPO 2612/2615 10008KT
BECMG 2616/2618 26008KT



MET'MAP, your aeronautical weather chart ! - Copyright ORBIFLY December 2007 - Disclaimer

ORBIFLY MET'MAP TEAM :

Programming & Development : Alexandra Zaïnal
Concept & original design : Baudouin d'Aumeries
Assistance for programming : Marc-Olivier Méhu
Technical & hardware support : Manuel Goepfert

Contact : metmap@orbifly.com




SOURCES & CREDITS :

   NOAA       Earth
Advisory